Airfield :
LOGIN :

Register | Disclaimer

   EN    FR    IT 

 










Legend :    VFR   Marginal VFR   IFR   Intensive IFR   Very Intensive IFR
Visi :
Ceiling :
>= 8 km
>= 3000ft
5 to 8 km
1000 to 3000 ft
1500m to 5 km
500 to 1000 ft
800 to 1500m
200 to 500 ft
< 800m
< 200 ft
Symbols :   Thunderstorms  Fog  Heavy snow  Heavy precipitations  Wind > 20 kt
SIGMETs :     Misc.  Thunderstorms  Icing  Turbulence  Mountain Waves  Volcanic Ashes







- Airport Elevation : 584 ft
- Download approach charts


LFPV - Villacoublay Vélizy

CURRENT METAR :
  • 222030Z AUTO 32003KT CAVOK 10/01 Q1028 NOSIG

EXPIRED METARs :
  • 222000Z AUTO 33002KT CAVOK 10/01 Q1028
  • 221930Z AUTO 31005KT CAVOK 10/01 Q1028 NOSIG
  • 221900Z AUTO 27004KT CAVOK 12/02 Q1028 NOSIG
  • 221830Z AUTO 26003KT CAVOK 13/02 Q1028 NOSIG
  • 221800Z AUTO 22004KT CAVOK 15/01 Q1027 NOSIG

TAF TAF LFPV
Valid from the 22 at 21:00 until the 23 at 21:00 UTC


222000Z 2221/2321 31005KT CAVOK
BECMG 2302/2303 3000 BR
BECMG 2304/2305 1500 BR BKN005
TEMPO 2306/2308 0400 FG OVC001
BECMG 2308/2309 1000 OVC008
BECMG 2311/2312 6000 NSW BKN020
No reported NOTAMs for that airfield.



MET'MAP, your aeronautical weather chart ! - Copyright ORBIFLY December 2007 - Disclaimer

ORBIFLY MET'MAP TEAM :

Programming & Development : Alexandra Zaïnal
Concept & Development : Baudouin d'Aumeries
Co-Development & Prog : Marc-Olivier Méhu
Technical & hardware support : Manuel Goepfert

Contact : metmap@orbifly.com




SOURCES & CREDITS :

   NOAA